createdAt,value
2023-05-14T00:00:01.427Z,101966.78
2023-05-14T00:02:29.133Z,101955.09
2023-05-14T00:04:58.377Z,101968.16
2023-05-14T00:07:30.719Z,101959.03
2023-05-14T00:09:58.606Z,101972.75
2023-05-14T00:12:26.679Z,101961.47
2023-05-14T00:14:54.732Z,101959.53
2023-05-14T00:17:22.442Z,101950.34
2023-05-14T00:19:50.189Z,101925.38
2023-05-14T00:22:19.190Z,101943.63
2023-05-14T00:24:46.842Z,101940.16
2023-05-14T00:27:14.757Z,101935.91
2023-05-14T00:29:42.382Z,101932.38
2023-05-14T00:32:10.059Z,101932.59
2023-05-14T00:34:37.642Z,101944.56
2023-05-14T00:37:05.625Z,101931.47
2023-05-14T00:39:35.115Z,101933.84
2023-05-14T00:42:02.788Z,101930.31
2023-05-14T00:44:30.438Z,101925.34
2023-05-14T00:46:58.215Z,101927.34
2023-05-14T00:49:26.649Z,101939.50
2023-05-14T00:51:54.733Z,101933.75
2023-05-14T00:54:22.660Z,101924.09
2023-05-14T00:56:52.074Z,101929.06
2023-05-14T00:59:19.764Z,101940.28
2023-05-14T01:01:47.642Z,101923.47
2023-05-14T01:04:15.836Z,101929.38
2023-05-14T01:06:57.876Z,101902.97
2023-05-14T01:09:30.697Z,101914.41
2023-05-14T01:12:06.536Z,101910.53
2023-05-14T01:14:42.059Z,101922.75
2023-05-14T01:17:12.727Z,101952.00
2023-05-14T01:19:42.093Z,101947.16
2023-05-14T01:22:11.911Z,101938.94
2023-05-14T01:24:39.700Z,101954.97
2023-05-14T01:27:14.414Z,101941.41
2023-05-14T01:29:46.468Z,101930.44
2023-05-14T01:32:14.723Z,101937.72
2023-05-14T01:34:42.893Z,101917.34
2023-05-14T01:37:13.433Z,101942.00
2023-05-14T01:39:43.458Z,101950.75
2023-05-14T01:42:11.978Z,101938.84
2023-05-14T01:44:39.578Z,101934.91
2023-05-14T01:47:07.269Z,101933.97
2023-05-14T01:49:34.915Z,101921.56
2023-05-14T01:52:02.520Z,101945.00
2023-05-14T01:54:31.512Z,101930.31
2023-05-14T01:56:59.099Z,101932.56
2023-05-14T01:59:26.748Z,101915.81
2023-05-14T02:01:54.452Z,101930.28
2023-05-14T02:04:22.125Z,101920.28
2023-05-14T02:06:50.007Z,101914.78
2023-05-14T02:09:17.595Z,101909.56
2023-05-14T02:11:46.560Z,101909.44
2023-05-14T02:14:15.241Z,101904.41
2023-05-14T02:16:42.991Z,101902.94
2023-05-14T02:19:11.116Z,101907.75
2023-05-14T02:21:38.773Z,101902.56
2023-05-14T02:24:06.764Z,101911.91
2023-05-14T02:26:34.363Z,101906.38
2023-05-14T02:29:03.356Z,101917.81
2023-05-14T02:31:31.108Z,101904.00
2023-05-14T02:33:58.765Z,101905.50
2023-05-14T02:36:26.374Z,101898.25
2023-05-14T02:38:54.065Z,101898.25
2023-05-14T02:41:21.686Z,101889.06
2023-05-14T02:43:49.344Z,101897.53
2023-05-14T02:46:18.386Z,101892.72
2023-05-14T02:48:46.116Z,101885.56
2023-05-14T02:51:13.768Z,101893.00
2023-05-14T02:53:41.408Z,101896.31
2023-05-14T02:56:09.018Z,101894.44
2023-05-14T02:58:36.646Z,101897.13
2023-05-14T03:01:04.340Z,101887.56
2023-05-14T03:03:33.966Z,101890.22
2023-05-14T03:06:02.134Z,101886.81
2023-05-14T03:08:29.804Z,101884.59
2023-05-14T03:10:57.454Z,101884.81
2023-05-14T03:13:25.105Z,101878.13
2023-05-14T03:15:54.873Z,101881.81
2023-05-14T03:18:22.753Z,101879.19
2023-05-14T03:20:51.756Z,101884.66
2023-05-14T03:23:19.382Z,101885.28
2023-05-14T03:25:47.062Z,101895.25
2023-05-14T03:28:14.699Z,101885.06
2023-05-14T03:30:42.369Z,101878.84
2023-05-14T03:33:10.071Z,101887.81
2023-05-14T03:35:37.704Z,101896.00
2023-05-14T03:38:07.454Z,101891.31
2023-05-14T03:40:35.094Z,101880.50
2023-05-14T03:43:02.755Z,101899.94
2023-05-14T03:45:30.605Z,101900.25
2023-05-14T03:47:58.336Z,101900.88
2023-05-14T03:50:26.668Z,101877.75
2023-05-14T03:52:54.973Z,101893.69
2023-05-14T03:55:24.260Z,101910.72
2023-05-14T03:57:51.872Z,101926.28
2023-05-14T04:00:19.947Z,101915.59
2023-05-14T04:02:47.627Z,101921.22
2023-05-14T04:05:15.389Z,101910.47
2023-05-14T04:07:43.052Z,101918.72
2023-05-14T04:10:11.031Z,101913.44
2023-05-14T04:12:40.062Z,101898.28
2023-05-14T04:15:08.909Z,101889.97
2023-05-14T04:17:36.665Z,101918.66
2023-05-14T04:20:04.840Z,101907.66
2023-05-14T04:22:33.025Z,101896.75
2023-05-14T04:25:00.616Z,101896.91
2023-05-14T04:27:29.402Z,101920.38
2023-05-14T04:29:58.440Z,101919.13
2023-05-14T04:32:26.130Z,101903.97
2023-05-14T04:34:53.864Z,101899.38
2023-05-14T04:37:21.578Z,101912.72
2023-05-14T04:39:49.242Z,101904.75
2023-05-14T04:42:16.871Z,101900.75
2023-05-14T04:44:44.511Z,101912.19
2023-05-14T04:47:13.488Z,101908.00
2023-05-14T04:49:41.280Z,101903.31
2023-05-14T04:52:08.923Z,101900.50
2023-05-14T04:54:36.693Z,101906.16
2023-05-14T04:57:04.452Z,101905.00
2023-05-14T04:59:32.774Z,101898.69
2023-05-14T05:02:00.427Z,101892.09
2023-05-14T05:04:29.412Z,101889.25
2023-05-14T05:06:57.077Z,101881.50
2023-05-14T05:09:24.709Z,101877.84
2023-05-14T05:11:52.327Z,101868.44
2023-05-14T05:14:20.034Z,101861.50
2023-05-14T05:16:47.728Z,101860.59
2023-05-14T05:19:15.554Z,101857.66
2023-05-14T05:21:44.836Z,101863.69
2023-05-14T05:24:13.308Z,101849.72
2023-05-14T05:26:40.923Z,101857.53
2023-05-14T05:29:08.580Z,101856.84
2023-05-14T05:31:36.647Z,101861.22
2023-05-14T05:34:04.775Z,101846.75
2023-05-14T05:36:32.627Z,101850.31
2023-05-14T05:39:01.584Z,101864.81
2023-05-14T05:41:30.058Z,101856.09
2023-05-14T05:43:57.685Z,101860.00
2023-05-14T05:46:25.429Z,101856.41
2023-05-14T05:48:53.263Z,101851.00
2023-05-14T05:51:20.926Z,101853.72
2023-05-14T05:53:48.602Z,101861.38
2023-05-14T05:56:17.612Z,101870.66
2023-05-14T05:58:45.313Z,101852.13
2023-05-14T06:01:12.935Z,101860.78
2023-05-14T06:03:40.634Z,101871.41
2023-05-14T06:06:08.663Z,101848.88
2023-05-14T06:08:36.372Z,101869.03
2023-05-14T06:11:03.980Z,101861.88
2023-05-14T06:13:33.359Z,101853.19
2023-05-14T06:16:01.043Z,101868.53
2023-05-14T06:18:28.918Z,101852.50
2023-05-14T06:20:57.044Z,101843.03
2023-05-14T06:23:24.609Z,101853.63
2023-05-14T06:25:52.206Z,101865.84
2023-05-14T06:28:19.856Z,101851.78
2023-05-14T06:30:50.729Z,101845.56
2023-05-14T06:33:20.476Z,101860.38
2023-05-14T06:35:48.377Z,101869.56
2023-05-14T06:38:16.011Z,101886.34
2023-05-14T06:40:43.610Z,101875.47
2023-05-14T06:43:11.321Z,101868.38
2023-05-14T06:45:38.953Z,101872.13
2023-05-14T06:48:10.116Z,101882.50
2023-05-14T06:50:37.912Z,101880.94
2023-05-14T06:53:05.529Z,101889.16
2023-05-14T06:55:33.209Z,101871.44
2023-05-14T06:58:00.838Z,101874.50
2023-05-14T07:00:28.999Z,101876.25
2023-05-14T07:02:56.622Z,101872.22
2023-05-14T07:05:26.390Z,101883.97
2023-05-14T07:07:54.010Z,101879.63
2023-05-14T07:10:21.893Z,101858.63
2023-05-14T07:12:49.975Z,101872.00
2023-05-14T07:15:17.690Z,101871.75
2023-05-14T07:17:45.625Z,101868.66
2023-05-14T07:20:14.164Z,101879.59
2023-05-14T07:22:43.106Z,101851.38
2023-05-14T07:25:11.132Z,101854.69
2023-05-14T07:27:38.804Z,101842.28
2023-05-14T07:30:07.599Z,101838.56
2023-05-14T07:32:35.372Z,101859.78
2023-05-14T07:35:03.108Z,101833.75
2023-05-14T07:37:30.756Z,101833.81
2023-05-14T07:39:59.703Z,101839.31
2023-05-14T07:42:36.023Z,101824.13
2023-05-14T07:45:04.922Z,101829.97
2023-05-14T07:47:32.941Z,101842.28
2023-05-14T07:50:00.888Z,101816.56
2023-05-14T07:52:28.716Z,101828.63
2023-05-14T07:54:56.655Z,101822.97
2023-05-14T07:57:26.263Z,101826.09
2023-05-14T07:59:53.973Z,101842.38
2023-05-14T08:02:21.637Z,101825.09
2023-05-14T08:04:49.293Z,101811.38
2023-05-14T08:07:17.251Z,101848.16
2023-05-14T08:09:44.848Z,101820.19
2023-05-14T08:12:12.807Z,101812.25
2023-05-14T08:14:41.791Z,101830.19
2023-05-14T08:17:09.572Z,101815.75
2023-05-14T08:19:37.324Z,101821.06
2023-05-14T08:22:05.575Z,101832.16
2023-05-14T08:24:33.199Z,101820.03
2023-05-14T08:27:00.861Z,101797.69
2023-05-14T08:29:28.728Z,101799.94
2023-05-14T08:31:58.073Z,101820.38
2023-05-14T08:34:26.073Z,101809.78
2023-05-14T08:36:53.725Z,101815.19
2023-05-14T08:39:21.310Z,101821.38
2023-05-14T08:41:49.221Z,101818.72
2023-05-14T08:44:20.762Z,101800.78
2023-05-14T08:46:51.130Z,101789.00
2023-05-14T08:49:29.180Z,101800.25
2023-05-14T08:51:57.478Z,101795.53
2023-05-14T08:54:26.247Z,101799.31
2023-05-14T08:56:54.217Z,101779.66
2023-05-14T08:59:21.866Z,101791.13
2023-05-14T09:01:54.064Z,101783.31
2023-05-14T09:04:24.407Z,101792.34
2023-05-14T09:06:54.479Z,101774.16
2023-05-14T09:09:23.141Z,101804.16
2023-05-14T09:11:52.035Z,101783.16
2023-05-14T09:14:20.756Z,101790.38
2023-05-14T09:16:50.000Z,101793.28
2023-05-14T09:19:19.222Z,101808.00
2023-05-14T09:21:50.289Z,101788.44
2023-05-14T09:24:22.235Z,101788.66
2023-05-14T09:26:51.959Z,101782.28
2023-05-14T09:29:19.874Z,101800.97
2023-05-14T09:31:48.742Z,101787.97
2023-05-14T09:34:25.141Z,101796.97
2023-05-14T09:36:57.734Z,101782.97
2023-05-14T09:39:26.421Z,101798.69
2023-05-14T09:41:54.830Z,101776.31
2023-05-14T09:44:22.944Z,101785.75
2023-05-14T09:46:51.642Z,101789.00
2023-05-14T09:49:19.560Z,101781.22
2023-05-14T09:51:47.408Z,101775.38
2023-05-14T09:54:16.581Z,101793.00
2023-05-14T09:56:45.064Z,101775.06
2023-05-14T09:59:12.958Z,101784.22
2023-05-14T10:01:43.859Z,101781.44
2023-05-14T10:04:13.563Z,101769.81
2023-05-14T10:06:42.801Z,101755.88
2023-05-14T10:09:13.711Z,101741.47
2023-05-14T10:11:46.244Z,101768.47
2023-05-14T10:14:19.613Z,101765.81
2023-05-14T10:16:50.111Z,101765.16
2023-05-14T10:19:19.344Z,101742.69
2023-05-14T10:21:50.722Z,101748.53
2023-05-14T10:24:20.024Z,101766.06
2023-05-14T10:26:49.833Z,101744.97
2023-05-14T10:29:17.435Z,101751.81
2023-05-14T10:31:50.142Z,101740.13
2023-05-14T10:34:38.641Z,101735.09
2023-05-14T10:37:09.028Z,101753.66
2023-05-14T10:39:44.981Z,101739.38
2023-05-14T10:42:16.312Z,101732.84
2023-05-14T10:44:52.597Z,101738.63
2023-05-14T10:47:20.999Z,101733.97
2023-05-14T10:49:52.952Z,101703.66
2023-05-14T10:52:20.697Z,101719.69
2023-05-14T10:54:52.872Z,101711.69
2023-05-14T10:57:23.573Z,101713.28
2023-05-14T10:59:54.865Z,101732.47
2023-05-14T11:02:24.897Z,101732.78
2023-05-14T11:05:03.342Z,101700.34
2023-05-14T11:07:33.296Z,101713.38
2023-05-14T11:10:03.453Z,101700.94
2023-05-14T11:12:32.763Z,101689.34
2023-05-14T11:15:02.130Z,101697.06
2023-05-14T11:17:31.123Z,101690.53
2023-05-14T11:19:59.769Z,101716.22
2023-05-14T11:22:28.640Z,101701.28
2023-05-14T11:24:56.264Z,101706.78
2023-05-14T11:27:24.568Z,101722.44
2023-05-14T11:29:55.797Z,101716.16
2023-05-14T11:32:23.647Z,101703.06
2023-05-14T11:34:51.947Z,101688.78
2023-05-14T11:37:20.288Z,101700.84
2023-05-14T11:39:49.500Z,101705.81
2023-05-14T11:42:19.514Z,101703.78
2023-05-14T11:44:48.971Z,101684.53
2023-05-14T11:47:18.836Z,101660.63
2023-05-14T11:49:46.627Z,101664.16
2023-05-14T11:52:15.751Z,101675.94
2023-05-14T11:54:44.872Z,101658.56
2023-05-14T11:57:14.622Z,101648.69
2023-05-14T11:59:42.319Z,101644.16
2023-05-14T12:02:11.723Z,101636.31
2023-05-14T12:04:41.511Z,101639.44
2023-05-14T12:07:11.022Z,101637.03
2023-05-14T12:09:41.564Z,101634.75
2023-05-14T12:12:12.012Z,101644.09
2023-05-14T12:14:43.353Z,101647.72
2023-05-14T12:17:12.960Z,101655.47
2023-05-14T12:19:43.271Z,101659.16
2023-05-14T12:22:11.991Z,101625.75
2023-05-14T12:24:40.178Z,101628.75
2023-05-14T12:27:09.207Z,101619.91
2023-05-14T12:29:39.099Z,101625.44
2023-05-14T12:32:10.166Z,101609.59
2023-05-14T12:34:38.865Z,101620.78
2023-05-14T12:37:08.032Z,101613.31
2023-05-14T12:39:35.959Z,101583.59
2023-05-14T12:42:03.597Z,101570.75
2023-05-14T12:44:31.233Z,101572.13
2023-05-14T12:46:59.064Z,101557.41
2023-05-14T12:49:26.662Z,101565.88
2023-05-14T12:52:07.903Z,101564.38
2023-05-14T12:54:43.726Z,101565.69
2023-05-14T12:57:11.550Z,101572.41
2023-05-14T12:59:39.185Z,101565.97
2023-05-14T13:02:07.101Z,101575.31
2023-05-14T13:04:34.884Z,101550.06
2023-05-14T13:07:02.596Z,101556.28
2023-05-14T13:09:30.182Z,101564.16
2023-05-14T13:11:59.230Z,101565.59
2023-05-14T13:14:26.905Z,101564.50
2023-05-14T13:16:54.730Z,101559.19
2023-05-14T13:19:22.331Z,101566.72
2023-05-14T13:21:49.912Z,101573.31
2023-05-14T13:24:17.582Z,101563.94
2023-05-14T13:26:45.499Z,101555.91
2023-05-14T13:29:14.470Z,101549.56
2023-05-14T13:31:42.110Z,101561.72
2023-05-14T13:34:10.236Z,101544.94
2023-05-14T13:36:39.644Z,101544.38
2023-05-14T13:39:07.445Z,101539.69
2023-05-14T13:41:35.713Z,101551.13
2023-05-14T13:44:03.350Z,101555.53
2023-05-14T13:46:32.416Z,101527.50
2023-05-14T13:49:00.125Z,101537.44
2023-05-14T13:51:27.746Z,101522.69
2023-05-14T13:56:27.961Z,101542.25
2023-05-14T13:58:55.811Z,101530.88
2023-05-14T14:01:23.505Z,101508.22
2023-05-14T14:03:52.632Z,101517.34
2023-05-14T14:06:20.750Z,101511.50
2023-05-14T14:08:48.448Z,101512.56
2023-05-14T14:11:16.927Z,101510.84
2023-05-14T14:13:46.637Z,101514.59
2023-05-14T14:16:14.520Z,101504.66
2023-05-14T14:18:43.094Z,101496.53
2023-05-14T14:21:12.463Z,101519.44
2023-05-14T14:23:40.079Z,101515.47
2023-05-14T14:26:07.766Z,101508.00
2023-05-14T14:28:35.433Z,101509.28
2023-05-14T14:31:03.490Z,101495.19
2023-05-14T14:33:31.155Z,101500.19
2023-05-14T14:35:58.952Z,101495.91
2023-05-14T14:38:27.930Z,101501.22
2023-05-14T14:40:55.642Z,101484.16
2023-05-14T14:43:23.255Z,101506.06
2023-05-14T14:45:51.366Z,101463.94
2023-05-14T14:48:31.281Z,101491.19
2023-05-14T14:50:59.895Z,101493.34
2023-05-14T14:53:28.847Z,101474.84
2023-05-14T14:55:56.948Z,101459.25
2023-05-14T14:58:26.014Z,101469.72
2023-05-14T15:00:55.153Z,101470.53
2023-05-14T15:03:23.490Z,101473.03
2023-05-14T15:05:52.030Z,101457.41
2023-05-14T15:08:20.765Z,101465.94
2023-05-14T15:10:49.762Z,101461.44
2023-05-14T15:13:17.578Z,101458.41
2023-05-14T15:15:45.406Z,101472.38
2023-05-14T15:18:13.110Z,101470.19
2023-05-14T15:20:40.896Z,101469.97
2023-05-14T15:23:08.940Z,101457.25
2023-05-14T15:25:37.126Z,101462.75
2023-05-14T15:28:07.402Z,101472.59
2023-05-14T15:30:35.174Z,101465.00
2023-05-14T15:33:02.931Z,101451.28
2023-05-14T15:35:30.720Z,101448.84
2023-05-14T15:37:58.323Z,101449.50
2023-05-14T15:40:26.144Z,101463.66
2023-05-14T15:42:54.013Z,101458.81
2023-05-14T15:45:23.344Z,101455.75
2023-05-14T15:47:51.203Z,101449.31
2023-05-14T15:50:19.034Z,101464.34
2023-05-14T15:52:46.830Z,101450.19
2023-05-14T15:55:14.470Z,101457.41
2023-05-14T15:57:42.102Z,101446.91
2023-05-14T16:00:11.399Z,101459.28
2023-05-14T16:02:40.788Z,101442.91
2023-05-14T16:05:09.485Z,101443.81
2023-05-14T16:07:37.762Z,101455.72
2023-05-14T16:10:06.095Z,101454.84
2023-05-14T16:12:33.744Z,101434.13
2023-05-14T16:15:01.365Z,101457.22
2023-05-14T16:17:30.391Z,101443.41
2023-05-14T16:20:00.793Z,101429.53
2023-05-14T16:22:29.202Z,101424.88
2023-05-14T16:24:56.868Z,101449.94
2023-05-14T16:27:24.553Z,101441.25
2023-05-14T16:29:52.173Z,101448.44
2023-05-14T16:32:20.277Z,101430.84
2023-05-14T16:34:49.891Z,101441.38
2023-05-14T16:37:20.622Z,101438.81
2023-05-14T16:39:48.526Z,101431.00
2023-05-14T16:42:16.197Z,101431.28
2023-05-14T16:44:43.975Z,101430.16
2023-05-14T16:47:12.031Z,101430.91
2023-05-14T16:49:39.700Z,101436.53
2023-05-14T16:52:08.438Z,101429.78
2023-05-14T16:54:37.578Z,101410.88
2023-05-14T16:57:05.997Z,101425.28
2023-05-14T16:59:33.638Z,101425.53
2023-05-14T17:02:01.348Z,101420.88
2023-05-14T17:04:29.212Z,101419.72
2023-05-14T17:06:58.116Z,101435.25
2023-05-14T17:09:25.850Z,101441.34
2023-05-14T17:11:54.817Z,101417.44
2023-05-14T17:14:22.600Z,101423.72
2023-05-14T17:16:50.238Z,101421.88
2023-05-14T17:19:17.870Z,101433.88
2023-05-14T17:21:45.511Z,101423.00
2023-05-14T17:24:13.182Z,101437.72
2023-05-14T17:26:40.967Z,101428.31
2023-05-14T17:29:09.904Z,101424.56
2023-05-14T17:31:37.619Z,101432.66
2023-05-14T17:34:05.528Z,101421.88
2023-05-14T17:36:33.270Z,101431.81
2023-05-14T17:39:00.952Z,101429.78
2023-05-14T17:41:28.611Z,101434.66
2023-05-14T17:43:56.192Z,101426.66
2023-05-14T17:46:25.676Z,101450.75
2023-05-14T17:48:53.345Z,101425.41
2023-05-14T17:51:21.028Z,101442.84
2023-05-14T17:53:48.617Z,101436.31
2023-05-14T17:56:18.371Z,101434.44
2023-05-14T17:58:46.102Z,101434.50
2023-05-14T18:01:13.787Z,101450.66
2023-05-14T18:03:42.951Z,101466.84
2023-05-14T18:06:10.683Z,101448.63
2023-05-14T18:08:38.326Z,101434.97
2023-05-14T18:11:05.983Z,101442.31
2023-05-14T18:13:33.614Z,101454.38
2023-05-14T18:16:01.297Z,101459.25
2023-05-14T18:18:29.026Z,101451.00
2023-05-14T18:20:58.464Z,101417.78
2023-05-14T18:23:26.111Z,101430.41
2023-05-14T18:25:54.007Z,101440.47
2023-05-14T18:28:21.933Z,101434.22
2023-05-14T18:30:50.114Z,101440.41
2023-05-14T18:33:18.065Z,101448.69
2023-05-14T18:35:45.733Z,101462.72
2023-05-14T18:38:17.705Z,101464.41
2023-05-14T18:40:45.365Z,101459.94
2023-05-14T18:43:13.451Z,101448.81
2023-05-14T18:45:41.169Z,101449.31
2023-05-14T18:48:09.048Z,101445.50
2023-05-14T18:50:39.222Z,101462.09
2023-05-14T18:53:07.522Z,101449.56
2023-05-14T18:55:37.111Z,101432.72
2023-05-14T18:58:04.815Z,101461.53
2023-05-14T19:00:32.654Z,101463.97
2023-05-14T19:03:00.367Z,101464.34
2023-05-14T19:05:28.084Z,101442.72
2023-05-14T19:07:55.798Z,101451.56
2023-05-14T19:10:23.481Z,101449.28
2023-05-14T19:12:52.483Z,101458.16
2023-05-14T19:15:20.209Z,101463.88
2023-05-14T19:17:47.835Z,101466.16
2023-05-14T19:20:15.500Z,101441.84
2023-05-14T19:22:43.166Z,101473.81
2023-05-14T19:25:11.571Z,101468.28
2023-05-14T19:27:39.548Z,101450.75
2023-05-14T19:30:09.888Z,101436.59
2023-05-14T19:32:38.060Z,101465.59
2023-05-14T19:35:06.946Z,101472.22
2023-05-14T19:37:34.639Z,101434.81
2023-05-14T19:40:02.351Z,101465.94
2023-05-14T19:42:30.608Z,101454.47
2023-05-14T19:44:58.348Z,101478.50
2023-05-14T19:47:28.462Z,101476.19
2023-05-14T19:49:56.270Z,101459.06
2023-05-14T19:52:23.889Z,101461.19
2023-05-14T19:54:51.555Z,101473.56
2023-05-14T19:57:19.223Z,101459.78
2023-05-14T19:59:46.939Z,101469.69
2023-05-14T20:02:18.140Z,101482.03
2023-05-14T20:04:47.470Z,101476.84
2023-05-14T20:07:15.600Z,101468.88
2023-05-14T20:09:43.308Z,101449.75
2023-05-14T20:12:12.826Z,101467.94
2023-05-14T20:14:41.045Z,101454.38
2023-05-14T20:17:08.758Z,101462.06
2023-05-14T20:19:36.534Z,101463.00
2023-05-14T20:22:05.976Z,101479.25
2023-05-14T20:24:33.598Z,101466.91
2023-05-14T20:27:01.625Z,101475.44
2023-05-14T20:29:29.296Z,101484.66
2023-05-14T20:31:57.140Z,101461.16
2023-05-14T20:34:24.805Z,101480.03
2023-05-14T20:36:52.915Z,101482.00
2023-05-14T20:39:22.127Z,101482.91
2023-05-14T20:41:49.736Z,101473.97
2023-05-14T20:44:18.458Z,101471.13
2023-05-14T20:46:48.369Z,101471.72
2023-05-14T20:49:16.117Z,101449.88
2023-05-14T20:51:43.727Z,101451.94
2023-05-14T20:54:11.340Z,101461.81
2023-05-14T20:56:40.357Z,101446.47
2023-05-14T20:59:07.962Z,101446.06
2023-05-14T21:01:35.730Z,101444.09
2023-05-14T21:04:03.658Z,101451.09
2023-05-14T21:06:31.433Z,101455.25
2023-05-14T21:08:59.083Z,101445.38
2023-05-14T21:11:26.717Z,101441.47
2023-05-14T21:13:55.713Z,101443.78
2023-05-14T21:16:23.771Z,101435.06
2023-05-14T21:18:51.467Z,101425.91
2023-05-14T21:21:19.141Z,101432.06
2023-05-14T21:23:46.796Z,101423.03
2023-05-14T21:26:14.460Z,101428.97
2023-05-14T21:28:42.092Z,101425.59
2023-05-14T21:31:11.127Z,101421.09
2023-05-14T21:33:38.790Z,101425.81
2023-05-14T21:36:07.357Z,101429.44
2023-05-14T21:38:35.171Z,101420.66
2023-05-14T21:41:02.871Z,101427.06
2023-05-14T21:43:30.513Z,101420.00
2023-05-14T21:45:58.206Z,101406.97
2023-05-14T21:48:27.225Z,101406.22
2023-05-14T21:50:55.843Z,101417.44
2023-05-14T21:53:23.580Z,101424.34
2023-05-14T21:55:51.339Z,101423.31
2023-05-14T21:58:18.953Z,101415.97
2023-05-14T22:00:46.629Z,101415.63
2023-05-14T22:03:14.420Z,101409.78
2023-05-14T22:05:43.536Z,101404.09
2023-05-14T22:08:11.743Z,101398.72
2023-05-14T22:10:39.371Z,101400.59
2023-05-14T22:13:07.014Z,101402.69
2023-05-14T22:15:34.971Z,101401.94
2023-05-14T22:18:03.572Z,101407.28
2023-05-14T22:20:31.278Z,101394.38
2023-05-14T22:23:00.279Z,101386.50
2023-05-14T22:25:27.996Z,101378.06
2023-05-14T22:27:55.664Z,101382.66
2023-05-14T22:30:23.493Z,101384.22
2023-05-14T22:32:51.169Z,101381.75
2023-05-14T22:35:18.966Z,101379.34
2023-05-14T22:37:46.624Z,101364.69
2023-05-14T22:40:16.086Z,101369.38
2023-05-14T22:42:43.758Z,101368.19
2023-05-14T22:45:11.721Z,101366.38
2023-05-14T22:47:39.659Z,101359.88
2023-05-14T22:50:11.473Z,101356.97
2023-05-14T22:52:39.463Z,101357.50
2023-05-14T22:55:08.074Z,101354.13
2023-05-14T22:57:37.181Z,101342.00
2023-05-14T23:00:06.978Z,101329.44
2023-05-14T23:02:34.754Z,101346.75
2023-05-14T23:05:02.439Z,101337.25
2023-05-14T23:07:30.079Z,101339.91
2023-05-14T23:09:57.721Z,101321.97
2023-05-14T23:12:25.377Z,101320.47
2023-05-14T23:14:54.355Z,101321.78
2023-05-14T23:17:22.188Z,101322.00
2023-05-14T23:19:49.975Z,101317.88
2023-05-14T23:22:17.723Z,101318.66
2023-05-14T23:24:45.402Z,101310.72
2023-05-14T23:27:13.057Z,101308.91
2023-05-14T23:29:40.731Z,101307.56
2023-05-14T23:32:09.999Z,101294.38
2023-05-14T23:34:37.745Z,101291.13
2023-05-14T23:37:05.794Z,101308.84
2023-05-14T23:39:33.492Z,101308.66
2023-05-14T23:42:01.110Z,101297.41
2023-05-14T23:44:28.779Z,101297.59
2023-05-14T23:46:56.459Z,101293.31
2023-05-14T23:49:25.561Z,101286.28
2023-05-14T23:51:53.208Z,101279.63
2023-05-14T23:54:21.144Z,101288.41
2023-05-14T23:56:49.014Z,101279.09
2023-05-14T23:59:17.058Z,101275.97
